createdAt,value
2023-03-27T00:01:37.221Z,23.21
2023-03-27T00:06:37.166Z,23.21
2023-03-27T00:08:37.183Z,23.20
2023-03-27T00:21:37.093Z,23.18
2023-03-27T00:44:38.636Z,23.21
2023-03-27T00:45:37.327Z,23.21
2023-03-27T00:46:37.416Z,23.21
2023-03-27T00:47:37.542Z,23.21
2023-03-27T00:48:37.512Z,23.22
2023-03-27T00:49:37.604Z,23.22
2023-03-27T00:50:37.588Z,23.22
2023-03-27T00:51:37.664Z,23.22
2023-03-27T00:52:37.739Z,23.21
2023-03-27T00:54:37.829Z,23.21
2023-03-27T00:55:37.893Z,23.22
2023-03-27T00:56:38.054Z,23.22
2023-03-27T00:57:38.012Z,23.22
2023-03-27T00:58:38.092Z,23.22
2023-03-27T00:59:38.125Z,23.21
2023-03-27T01:00:38.211Z,23.21
2023-03-27T01:01:38.353Z,23.21
2023-03-27T01:02:38.392Z,23.20
2023-03-27T01:03:38.414Z,23.20
2023-03-27T01:04:38.373Z,23.20
2023-03-27T01:05:38.460Z,23.20
2023-03-27T01:06:38.499Z,23.19
2023-03-27T01:07:38.520Z,23.19
2023-03-27T01:08:38.573Z,23.19
2023-03-27T01:09:38.676Z,23.19
2023-03-27T01:10:38.639Z,23.19
2023-03-27T01:11:38.694Z,23.19
2023-03-27T01:12:38.701Z,23.19
2023-03-27T01:13:38.752Z,23.19
2023-03-27T01:14:38.817Z,23.19
2023-03-27T01:15:38.886Z,23.19
2023-03-27T01:16:38.876Z,23.20
2023-03-27T01:17:38.910Z,23.19
2023-03-27T01:18:38.978Z,23.20
2023-03-27T01:19:39.024Z,23.20
2023-03-27T01:20:39.048Z,23.21
2023-03-27T01:21:39.105Z,23.20
2023-03-27T01:22:39.150Z,23.20
2023-03-27T01:23:59.518Z,23.21
2023-03-27T01:24:40.185Z,23.21
2023-03-27T01:25:39.185Z,23.21
2023-03-27T01:28:39.171Z,23.22
2023-03-27T01:34:39.258Z,23.25
2023-03-27T01:35:39.368Z,23.25
2023-03-27T01:36:39.365Z,23.25
2023-03-27T01:37:39.396Z,23.26
2023-03-27T01:38:39.449Z,23.26
2023-03-27T01:39:39.493Z,23.28
2023-03-27T01:40:39.576Z,23.29
2023-03-27T01:41:39.644Z,23.31
2023-03-27T01:42:39.671Z,23.31
2023-03-27T01:43:39.783Z,23.32
2023-03-27T01:44:43.673Z,23.34
2023-03-27T01:45:40.848Z,23.34
2023-03-27T01:57:48.946Z,23.50
2023-03-27T01:58:41.013Z,23.51
2023-03-27T02:00:52.109Z,23.54
2023-03-27T02:01:41.032Z,23.56
2023-03-27T02:03:39.982Z,23.59
2023-03-27T02:10:39.923Z,23.69
2023-03-27T02:11:39.984Z,23.71
2023-03-27T02:12:40.003Z,23.72
2023-03-27T02:13:40.064Z,23.73
2023-03-27T02:14:40.114Z,23.74
2023-03-27T02:15:40.154Z,23.74
2023-03-27T02:16:40.257Z,23.76
2023-03-27T02:17:40.315Z,23.76
2023-03-27T02:18:40.341Z,23.76
2023-03-27T02:19:40.382Z,23.77
2023-03-27T02:20:40.438Z,23.79
2023-03-27T02:21:40.470Z,23.80
2023-03-27T02:22:40.533Z,23.81
2023-03-27T02:23:40.574Z,23.81
2023-03-27T02:24:40.615Z,23.82
2023-03-27T02:25:40.666Z,23.83
2023-03-27T02:26:40.739Z,23.84
2023-03-27T02:27:40.752Z,23.84
2023-03-27T02:28:40.827Z,23.85
2023-03-27T02:29:40.835Z,23.86
2023-03-27T02:30:40.905Z,23.87
2023-03-27T02:31:40.938Z,23.88
2023-03-27T02:32:41.092Z,23.88
2023-03-27T02:33:41.020Z,23.90
2023-03-27T02:34:41.087Z,23.90
2023-03-27T02:35:41.179Z,23.91
2023-03-27T02:36:41.154Z,23.92
2023-03-27T02:37:41.177Z,23.92
2023-03-27T02:38:41.233Z,23.92
2023-03-27T02:39:41.273Z,23.93
2023-03-27T02:40:41.327Z,23.93
2023-03-27T02:41:41.332Z,23.95
2023-03-27T02:42:41.353Z,23.96
2023-03-27T02:43:41.423Z,23.97
2023-03-27T02:44:46.546Z,23.97
2023-03-27T02:45:42.506Z,23.97
2023-03-27T02:52:41.400Z,24.02
2023-03-27T02:53:41.420Z,24.03
2023-03-27T02:57:41.354Z,24.05
2023-03-27T03:03:41.292Z,24.08
2023-03-27T03:04:41.305Z,24.09
2023-03-27T03:05:41.305Z,24.09
2023-03-27T03:21:41.363Z,24.10
2023-03-27T03:22:41.385Z,24.06
2023-03-27T03:23:41.391Z,24.06
2023-03-27T03:24:42.599Z,24.05
2023-03-27T03:30:41.383Z,24.01
2023-03-27T03:35:41.332Z,23.98
2023-03-27T03:36:41.295Z,23.99
2023-03-27T03:37:41.316Z,24.00
2023-03-27T03:44:41.409Z,23.79
2023-03-27T03:45:41.438Z,23.76
2023-03-27T03:46:41.503Z,23.74
2023-03-27T03:47:41.593Z,23.75
2023-03-27T03:48:41.645Z,23.77
2023-03-27T03:49:41.688Z,23.77
2023-03-27T03:50:41.752Z,23.79
2023-03-27T03:51:41.806Z,23.81
2023-03-27T03:52:41.833Z,23.83
2023-03-27T03:53:41.874Z,23.86
2023-03-27T03:54:41.977Z,23.88
2023-03-27T03:55:42.030Z,23.90
2023-03-27T03:56:42.000Z,23.92
2023-03-27T03:57:42.055Z,23.95
2023-03-27T03:58:42.088Z,23.97
2023-03-27T03:59:42.096Z,24.00
2023-03-27T04:00:42.100Z,24.03
2023-03-27T04:01:42.192Z,24.04
2023-03-27T04:02:42.220Z,24.05
2023-03-27T04:03:42.296Z,24.06
2023-03-27T04:04:42.217Z,24.09
2023-03-27T04:10:42.337Z,24.16
2023-03-27T04:11:42.343Z,24.16
2023-03-27T04:12:42.365Z,24.17
2023-03-27T04:13:42.380Z,24.18
2023-03-27T04:14:42.408Z,24.19
2023-03-27T04:15:42.461Z,24.20
2023-03-27T04:16:42.444Z,24.21
2023-03-27T04:17:42.543Z,24.21
2023-03-27T04:18:42.562Z,24.22
2023-03-27T04:19:42.504Z,24.22
2023-03-27T04:20:42.517Z,24.23
2023-03-27T04:23:42.555Z,24.27
2023-03-27T04:31:42.579Z,24.31
2023-03-27T04:32:42.591Z,24.31
2023-03-27T04:33:42.563Z,24.33
2023-03-27T04:34:42.582Z,24.32
2023-03-27T04:35:42.607Z,24.33
2023-03-27T04:36:42.664Z,24.33
2023-03-27T04:39:42.571Z,24.32
2023-03-27T04:40:42.583Z,24.32
2023-03-27T04:41:42.588Z,24.30
2023-03-27T04:42:42.601Z,24.30
2023-03-27T04:44:42.579Z,24.30
2023-03-27T04:45:42.588Z,24.31
2023-03-27T04:51:42.620Z,24.30
2023-03-27T04:52:42.653Z,24.29
2023-03-27T04:56:42.719Z,24.27
2023-03-27T04:58:42.648Z,24.28
2023-03-27T04:59:42.688Z,24.29
2023-03-27T05:01:42.833Z,24.28
2023-03-27T05:02:42.700Z,24.27
2023-03-27T05:03:42.735Z,24.29
2023-03-27T05:07:42.644Z,24.27
2023-03-27T05:08:42.659Z,24.28
2023-03-27T05:10:42.633Z,24.28
2023-03-27T05:11:42.637Z,24.28
2023-03-27T05:12:42.603Z,24.26
2023-03-27T05:14:42.616Z,24.26
2023-03-27T05:15:42.597Z,24.26
2023-03-27T05:18:42.577Z,24.20
2023-03-27T05:19:42.592Z,24.18
2023-03-27T05:20:42.547Z,24.18
2023-03-27T05:21:42.568Z,24.16
2023-03-27T05:26:42.492Z,24.16
2023-03-27T05:27:42.516Z,24.16
2023-03-27T05:28:42.564Z,24.16
2023-03-27T05:34:42.526Z,24.13
2023-03-27T05:35:42.495Z,24.13
2023-03-27T05:37:42.433Z,24.05
2023-03-27T05:38:42.478Z,24.03
2023-03-27T05:40:42.463Z,23.97
2023-03-27T05:41:42.402Z,23.96
2023-03-27T05:46:42.415Z,23.88
2023-03-27T05:47:42.478Z,23.90
2023-03-27T05:49:42.356Z,23.98
2023-03-27T05:50:42.475Z,24.05
2023-03-27T05:51:47.234Z,24.09
2023-03-27T05:52:43.380Z,24.16
2023-03-27T05:54:42.986Z,24.21
2023-03-27T05:55:42.376Z,24.24
2023-03-27T05:56:42.376Z,24.26
2023-03-27T05:58:42.290Z,24.31
2023-03-27T05:59:42.296Z,24.32
2023-03-27T06:00:42.315Z,24.34
2023-03-27T06:01:42.530Z,24.35
2023-03-27T06:06:42.246Z,24.44
2023-03-27T06:07:43.539Z,24.46
2023-03-27T06:08:42.262Z,24.48
2023-03-27T06:09:42.267Z,24.51
2023-03-27T06:11:42.499Z,24.57
2023-03-27T06:15:42.242Z,24.62
2023-03-27T06:16:42.219Z,24.63
2023-03-27T06:22:42.193Z,24.65
2023-03-27T06:23:42.228Z,24.65
2023-03-27T06:24:42.265Z,24.65
2023-03-27T06:28:42.392Z,24.63
2023-03-27T06:31:42.573Z,24.67
2023-03-27T06:32:42.572Z,24.69
2023-03-27T06:33:42.573Z,24.70
2023-03-27T06:34:42.639Z,24.71
2023-03-27T06:35:42.734Z,24.73
2023-03-27T06:36:42.766Z,24.74
2023-03-27T06:37:42.829Z,24.76
2023-03-27T06:38:42.919Z,24.75
2023-03-27T06:39:42.974Z,24.71
2023-03-27T06:40:42.995Z,24.68
2023-03-27T06:41:43.521Z,24.65
2023-03-27T06:42:43.454Z,24.65
2023-03-27T06:45:43.094Z,24.65
2023-03-27T06:46:45.938Z,24.62
2023-03-27T06:49:43.029Z,24.62
2023-03-27T06:55:42.986Z,24.37
2023-03-27T06:58:42.973Z,24.17
2023-03-27T06:59:42.967Z,24.10
2023-03-27T07:02:42.923Z,23.89
2023-03-27T07:03:42.907Z,23.77
2023-03-27T07:04:51.124Z,23.63
2023-03-27T07:05:44.020Z,23.44
2023-03-27T07:09:42.848Z,22.93
2023-03-27T07:13:42.842Z,22.93
2023-03-27T07:16:42.878Z,22.89
2023-03-27T07:18:42.802Z,22.72
2023-03-27T07:19:42.774Z,22.69
2023-03-27T07:20:42.801Z,22.72
2023-03-27T07:21:42.794Z,22.78
2023-03-27T07:26:42.743Z,23.04
2023-03-27T07:30:42.708Z,23.17
2023-03-27T07:33:42.797Z,23.34
2023-03-27T07:34:42.760Z,23.40
2023-03-27T07:35:42.863Z,23.45
2023-03-27T07:36:43.060Z,23.48
2023-03-27T07:39:43.082Z,23.56
2023-03-27T07:40:43.117Z,23.58
2023-03-27T07:41:43.174Z,23.61
2023-03-27T07:42:43.270Z,23.64
2023-03-27T07:43:43.288Z,23.64
2023-03-27T07:44:43.317Z,23.64
2023-03-27T07:45:43.419Z,23.61
2023-03-27T07:46:43.489Z,23.60
2023-03-27T07:47:43.589Z,23.59
2023-03-27T07:48:43.597Z,23.59
2023-03-27T07:49:43.699Z,23.59
2023-03-27T07:51:43.735Z,23.62
2023-03-27T07:52:43.785Z,23.64
2023-03-27T07:53:43.848Z,23.67
2023-03-27T07:54:43.912Z,23.69
2023-03-27T07:55:43.924Z,23.71
2023-03-27T07:56:44.069Z,23.72
2023-03-27T07:59:43.985Z,23.74
2023-03-27T08:00:43.991Z,23.74
2023-03-27T08:01:44.089Z,23.73
2023-03-27T08:03:44.016Z,23.70
2023-03-27T08:04:44.042Z,23.69
2023-03-27T08:08:43.916Z,23.65
2023-03-27T08:09:43.976Z,23.62
2023-03-27T08:13:43.999Z,23.54
2023-03-27T08:14:43.946Z,23.51
2023-03-27T08:15:43.911Z,23.48
2023-03-27T08:18:43.864Z,23.34
2023-03-27T08:19:44.512Z,23.33
2023-03-27T08:23:43.857Z,23.38
2023-03-27T08:24:43.852Z,23.40
2023-03-27T08:30:43.845Z,23.44
2023-03-27T08:31:43.772Z,23.46
2023-03-27T08:32:44.115Z,23.49
2023-03-27T08:34:43.716Z,23.57
2023-03-27T08:35:43.781Z,23.61
2023-03-27T08:36:43.748Z,23.67
2023-03-27T08:38:43.715Z,23.77
2023-03-27T08:39:43.756Z,23.80
2023-03-27T08:40:43.802Z,23.82
2023-03-27T08:41:43.859Z,23.86
2023-03-27T08:42:43.891Z,23.92
2023-03-27T08:43:43.929Z,23.96
2023-03-27T08:44:43.935Z,24.01
2023-03-27T08:45:43.972Z,24.04
2023-03-27T08:46:44.039Z,24.08
2023-03-27T08:47:44.098Z,24.11
2023-03-27T08:48:44.070Z,24.12
2023-03-27T08:49:44.078Z,24.15
2023-03-27T08:50:44.090Z,24.15
2023-03-27T08:51:44.126Z,24.14
2023-03-27T08:52:44.569Z,24.14
2023-03-27T08:54:44.169Z,24.15
2023-03-27T08:55:44.218Z,24.18
2023-03-27T08:56:44.271Z,24.20
2023-03-27T08:57:44.251Z,24.21
2023-03-27T08:58:45.081Z,24.20
2023-03-27T09:03:44.344Z,24.28
2023-03-27T09:05:44.300Z,24.32
2023-03-27T09:08:44.269Z,24.37
2023-03-27T09:13:44.343Z,24.45
2023-03-27T09:14:44.345Z,24.47
2023-03-27T09:15:44.392Z,24.48
2023-03-27T09:16:46.325Z,24.49
2023-03-27T09:17:44.503Z,24.48
2023-03-27T09:18:44.441Z,24.48
2023-03-27T09:19:44.537Z,24.50
2023-03-27T09:20:44.557Z,24.51
2023-03-27T09:21:44.598Z,24.52
2023-03-27T09:22:44.813Z,24.53
2023-03-27T09:28:45.243Z,24.53
2023-03-27T09:29:44.967Z,24.49
2023-03-27T09:30:44.969Z,24.46
2023-03-27T09:33:45.027Z,24.48
2023-03-27T09:34:45.039Z,24.49
2023-03-27T09:35:45.092Z,24.50
2023-03-27T09:36:45.029Z,24.49
2023-03-27T09:37:45.099Z,24.52
2023-03-27T09:38:45.157Z,24.54
2023-03-27T09:39:45.212Z,24.56
2023-03-27T09:40:45.271Z,24.59
2023-03-27T09:41:45.328Z,24.60
2023-03-27T09:42:45.570Z,24.56
2023-03-27T09:44:45.458Z,24.51
2023-03-27T09:53:45.662Z,24.55
2023-03-27T09:54:45.732Z,24.47
2023-03-27T09:55:45.686Z,24.39
2023-03-27T09:56:45.731Z,24.30
2023-03-27T09:57:46.559Z,24.24
2023-03-27T09:58:45.826Z,24.20
2023-03-27T09:59:45.830Z,24.19
2023-03-27T10:00:45.960Z,24.18
2023-03-27T10:01:45.918Z,24.14
2023-03-27T10:07:46.117Z,24.06
2023-03-27T10:08:46.045Z,24.11
2023-03-27T10:09:46.095Z,24.16
2023-03-27T10:18:46.162Z,24.49
2023-03-27T10:19:47.183Z,24.50
2023-03-27T10:21:46.068Z,24.56
2023-03-27T10:22:46.088Z,24.58
2023-03-27T10:23:46.119Z,24.59
2023-03-27T10:28:46.121Z,24.67
2023-03-27T10:36:46.382Z,24.62
2023-03-27T10:37:50.244Z,24.61
2023-03-27T10:39:46.365Z,24.56
2023-03-27T10:48:46.299Z,24.53
2023-03-27T10:53:46.356Z,24.66
2023-03-27T10:54:46.269Z,24.69
2023-03-27T10:55:46.248Z,24.71
2023-03-27T10:56:46.324Z,24.73
2023-03-27T10:57:46.336Z,24.75
2023-03-27T10:58:46.405Z,24.77
2023-03-27T10:59:46.432Z,24.78
2023-03-27T11:00:46.525Z,24.81
2023-03-27T11:01:46.581Z,24.82
2023-03-27T11:02:46.685Z,24.84
2023-03-27T11:03:46.619Z,24.86
2023-03-27T11:04:46.700Z,24.87
2023-03-27T11:05:46.711Z,24.88
2023-03-27T11:07:47.102Z,24.89
2023-03-27T11:11:46.692Z,24.91
2023-03-27T11:15:46.601Z,24.90
2023-03-27T11:16:46.650Z,24.90
2023-03-27T11:19:46.694Z,24.94
2023-03-27T11:20:46.721Z,24.94
2023-03-27T11:21:46.749Z,24.96
2023-03-27T11:22:46.809Z,24.97
2023-03-27T11:23:46.871Z,24.98
2023-03-27T11:24:46.881Z,24.98
2023-03-27T11:25:46.945Z,24.99
2023-03-27T11:26:46.952Z,24.99
2023-03-27T11:27:46.995Z,24.98
2023-03-27T11:28:47.122Z,24.95
2023-03-27T11:29:47.149Z,24.95
2023-03-27T11:30:47.192Z,24.95
2023-03-27T11:31:47.276Z,24.93
2023-03-27T11:32:47.314Z,24.89
2023-03-27T11:33:47.599Z,24.90
2023-03-27T11:34:47.359Z,24.88
2023-03-27T11:35:47.459Z,24.87
2023-03-27T11:36:47.485Z,24.87
2023-03-27T11:37:47.554Z,24.85
2023-03-27T11:38:47.590Z,24.84
2023-03-27T11:39:47.653Z,24.83
2023-03-27T11:40:47.719Z,24.82
2023-03-27T11:41:47.771Z,24.80
2023-03-27T11:42:47.817Z,24.80
2023-03-27T11:43:47.884Z,24.79
2023-03-27T11:44:47.960Z,24.78
2023-03-27T11:45:48.013Z,24.76
2023-03-27T11:46:48.103Z,24.76
2023-03-27T11:47:48.192Z,24.76
2023-03-27T11:48:48.216Z,24.75
2023-03-27T11:49:48.304Z,24.74
2023-03-27T11:50:48.383Z,24.73
2023-03-27T11:51:48.348Z,24.72
2023-03-27T11:52:48.426Z,24.71
2023-03-27T11:53:48.471Z,24.70
2023-03-27T11:54:48.537Z,24.68
2023-03-27T11:55:48.632Z,24.68
2023-03-27T11:56:48.700Z,24.67
2023-03-27T11:57:48.685Z,24.65
2023-03-27T11:58:48.748Z,24.64
2023-03-27T11:59:48.777Z,24.64
2023-03-27T12:00:48.819Z,24.62
2023-03-27T12:01:48.892Z,24.61
2023-03-27T12:02:49.149Z,24.60
2023-03-27T12:03:49.109Z,24.58
2023-03-27T12:04:48.977Z,24.57
2023-03-27T12:09:49.140Z,24.52
2023-03-27T12:14:49.090Z,24.45
2023-03-27T12:15:49.100Z,24.44
2023-03-27T12:16:49.191Z,24.42
2023-03-27T12:17:49.161Z,24.40
2023-03-27T12:19:49.108Z,24.38
2023-03-27T12:20:53.370Z,24.35
2023-03-27T12:21:49.118Z,24.32
2023-03-27T12:25:49.075Z,24.30
2023-03-27T12:27:49.064Z,24.30
2023-03-27T12:29:49.013Z,24.30
2023-03-27T12:30:49.023Z,24.32
2023-03-27T12:34:49.015Z,24.32
2023-03-27T12:36:48.983Z,24.32
2023-03-27T12:37:48.981Z,24.32
2023-03-27T12:38:49.029Z,24.30
2023-03-27T12:44:48.960Z,23.72
2023-03-27T12:46:48.976Z,23.58
2023-03-27T12:48:48.918Z,23.56
2023-03-27T12:55:49.226Z,23.74
2023-03-27T12:56:49.300Z,23.78
2023-03-27T12:57:49.459Z,23.82
2023-03-27T12:58:49.378Z,23.85
2023-03-27T12:59:49.404Z,23.88
2023-03-27T13:00:49.431Z,23.90
2023-03-27T13:01:52.728Z,23.94
2023-03-27T13:06:49.453Z,24.03
2023-03-27T13:07:49.457Z,24.05
2023-03-27T13:08:49.645Z,24.08
2023-03-27T13:11:49.445Z,24.12
2023-03-27T13:15:49.439Z,24.15
2023-03-27T13:18:51.740Z,24.18
2023-03-27T13:22:49.368Z,24.18
2023-03-27T13:25:49.339Z,24.18
2023-03-27T13:28:49.334Z,24.12
2023-03-27T13:35:51.347Z,23.77
2023-03-27T13:36:49.283Z,23.70
2023-03-27T13:37:49.252Z,23.68
2023-03-27T13:42:49.208Z,23.75
2023-03-27T13:43:49.233Z,23.77
2023-03-27T13:48:49.178Z,23.87
2023-03-27T13:50:49.191Z,23.89
2023-03-27T13:51:49.193Z,23.91
2023-03-27T13:54:49.167Z,23.92
2023-03-27T14:00:49.112Z,23.88
2023-03-27T14:01:49.219Z,23.85
2023-03-27T14:02:49.310Z,23.84
2023-03-27T14:03:49.363Z,23.84
2023-03-27T14:04:49.246Z,23.84
2023-03-27T14:05:49.258Z,23.84
2023-03-27T14:06:49.317Z,23.80
2023-03-27T14:07:49.442Z,23.79
2023-03-27T14:15:50.679Z,23.72
2023-03-27T14:16:49.785Z,23.72
2023-03-27T14:17:49.927Z,23.70
2023-03-27T14:18:49.877Z,23.70
2023-03-27T14:19:49.962Z,23.70
2023-03-27T14:20:50.002Z,23.72
2023-03-27T14:21:50.051Z,23.73
2023-03-27T14:22:50.126Z,23.74
2023-03-27T14:23:50.159Z,23.75
2023-03-27T14:24:50.188Z,23.75
2023-03-27T14:25:50.254Z,23.76
2023-03-27T14:26:50.323Z,23.77
2023-03-27T14:27:50.356Z,23.78
2023-03-27T14:28:50.397Z,23.80
2023-03-27T14:29:50.439Z,23.82
2023-03-27T14:30:50.458Z,23.84
2023-03-27T14:31:50.515Z,23.85
2023-03-27T14:32:50.601Z,23.87
2023-03-27T14:33:50.579Z,23.88
2023-03-27T14:34:53.754Z,23.90
2023-03-27T14:36:50.610Z,23.92
2023-03-27T14:37:50.605Z,23.95
2023-03-27T14:44:50.562Z,24.03
2023-03-27T14:46:50.557Z,24.04
2023-03-27T14:52:50.508Z,24.07
2023-03-27T14:53:50.504Z,24.08
2023-03-27T14:55:50.495Z,24.09
2023-03-27T14:56:50.490Z,24.09
2023-03-27T15:01:50.463Z,24.12
2023-03-27T15:03:50.429Z,24.12
2023-03-27T15:04:50.434Z,24.12
2023-03-27T15:06:50.395Z,24.12
2023-03-27T15:18:50.322Z,24.13
2023-03-27T15:19:50.329Z,24.14
2023-03-27T15:26:50.278Z,24.10
2023-03-27T15:36:50.214Z,24.04
2023-03-27T15:37:50.209Z,24.03
2023-03-27T15:41:50.275Z,24.04
2023-03-27T15:47:50.434Z,24.03
2023-03-27T15:48:50.396Z,24.03
2023-03-27T15:50:50.452Z,24.03
2023-03-27T15:51:50.489Z,24.03
2023-03-27T15:52:50.509Z,24.03
2023-03-27T15:53:50.513Z,24.03
2023-03-27T15:54:50.549Z,24.02
2023-03-27T15:55:50.575Z,24.02
2023-03-27T15:56:50.616Z,24.03
2023-03-27T15:57:50.595Z,24.02
2023-03-27T15:58:50.636Z,24.02
2023-03-27T15:59:51.288Z,24.02
2023-03-27T16:00:50.679Z,24.01
2023-03-27T16:01:50.755Z,24.01
2023-03-27T16:02:50.760Z,23.99
2023-03-27T16:03:50.841Z,23.99
2023-03-27T16:04:50.746Z,23.98
2023-03-27T16:05:50.765Z,23.97
2023-03-27T16:06:50.819Z,23.96
2023-03-27T16:12:50.942Z,23.92
2023-03-27T16:13:51.037Z,23.92
2023-03-27T16:14:51.015Z,23.92
2023-03-27T16:15:51.063Z,23.92
2023-03-27T16:16:51.051Z,23.92
2023-03-27T16:17:51.152Z,23.92
2023-03-27T16:18:51.143Z,23.92
2023-03-27T16:19:51.151Z,23.92
2023-03-27T16:20:51.162Z,23.92
2023-03-27T16:21:51.189Z,23.92
2023-03-27T16:22:51.196Z,23.91
2023-03-27T16:23:51.250Z,23.89
2023-03-27T16:24:51.293Z,23.86
2023-03-27T16:25:51.321Z,23.84
2023-03-27T16:26:52.613Z,23.82
2023-03-27T16:27:51.333Z,23.81
2023-03-27T16:28:51.346Z,23.81
2023-03-27T16:36:51.298Z,23.81
2023-03-27T16:39:51.307Z,23.82
2023-03-27T16:55:51.205Z,23.74
2023-03-27T16:56:51.185Z,23.72
2023-03-27T16:57:51.172Z,23.71
2023-03-27T17:01:51.155Z,23.70
2023-03-27T17:02:51.731Z,23.70
2023-03-27T17:09:51.071Z,23.69
2023-03-27T17:11:51.118Z,23.70
2023-03-27T17:20:51.354Z,23.73
2023-03-27T17:21:51.489Z,23.74
2023-03-27T17:22:51.490Z,23.74
2023-03-27T17:23:51.493Z,23.74
2023-03-27T17:24:56.911Z,23.73
2023-03-27T17:25:52.591Z,23.73
2023-03-27T17:26:51.529Z,23.73
2023-03-27T17:27:51.535Z,23.72
2023-03-27T17:32:51.539Z,23.72
2023-03-27T17:39:51.631Z,23.73
2023-03-27T17:40:51.699Z,23.73
2023-03-27T17:41:51.711Z,23.73
2023-03-27T17:42:51.758Z,23.73
2023-03-27T17:43:51.790Z,23.73
2023-03-27T17:44:51.848Z,23.74
2023-03-27T17:45:51.914Z,23.73
2023-03-27T17:46:52.033Z,23.74
2023-03-27T17:47:52.058Z,23.73
2023-03-27T17:48:52.009Z,23.74
2023-03-27T17:49:52.072Z,23.73
2023-03-27T17:51:07.475Z,23.73
2023-03-27T17:51:53.138Z,23.73
2023-03-27T17:58:05.920Z,23.74
2023-03-27T17:58:53.087Z,23.73
2023-03-27T18:00:52.071Z,23.73
2023-03-27T18:01:52.098Z,23.73
2023-03-27T18:12:52.201Z,23.71
2023-03-27T18:13:52.262Z,23.68
2023-03-27T18:14:52.306Z,23.63
2023-03-27T18:15:52.387Z,23.60
2023-03-27T18:16:52.419Z,23.56
2023-03-27T18:17:52.525Z,23.55
2023-03-27T18:18:52.554Z,23.53
2023-03-27T18:19:52.635Z,23.54
2023-03-27T18:20:52.704Z,23.54
2023-03-27T18:21:52.774Z,23.55
2023-03-27T18:22:53.742Z,23.55
2023-03-27T18:26:53.091Z,23.59
2023-03-27T18:27:53.110Z,23.60
2023-03-27T18:28:53.190Z,23.60
2023-03-27T18:29:53.234Z,23.61
2023-03-27T18:30:53.286Z,23.62
2023-03-27T18:31:53.474Z,23.63
2023-03-27T18:32:53.517Z,23.63
2023-03-27T18:33:53.474Z,23.64
2023-03-27T18:34:53.539Z,23.64
2023-03-27T18:35:53.642Z,23.64
2023-03-27T18:36:53.642Z,23.65
2023-03-27T18:37:53.666Z,23.65
2023-03-27T18:38:53.749Z,23.65
2023-03-27T18:39:53.769Z,23.66
2023-03-27T18:40:53.858Z,23.66
2023-03-27T18:41:53.887Z,23.66
2023-03-27T18:42:53.986Z,23.67
2023-03-27T18:43:53.985Z,23.67
2023-03-27T18:44:54.042Z,23.67
2023-03-27T18:45:54.123Z,23.67
2023-03-27T18:46:54.133Z,23.67
2023-03-27T18:47:54.182Z,23.68
2023-03-27T18:48:54.201Z,23.68
2023-03-27T18:49:54.268Z,23.67
2023-03-27T18:50:54.278Z,23.68
2023-03-27T18:51:54.354Z,23.67
2023-03-27T18:52:54.410Z,23.66
2023-03-27T18:53:54.451Z,23.66
2023-03-27T18:54:54.511Z,23.65
2023-03-27T18:55:54.582Z,23.65
2023-03-27T18:56:54.698Z,23.65
2023-03-27T18:57:54.673Z,23.65
2023-03-27T18:58:54.717Z,23.65
2023-03-27T18:59:54.778Z,23.64
2023-03-27T19:00:54.834Z,23.64
2023-03-27T19:01:54.882Z,23.64
2023-03-27T19:02:54.982Z,23.64
2023-03-27T19:03:54.997Z,23.64
2023-03-27T19:04:55.028Z,23.65
2023-03-27T19:05:55.147Z,23.64
2023-03-27T19:06:55.160Z,23.64
2023-03-27T19:07:55.189Z,23.64
2023-03-27T19:08:55.242Z,23.64
2023-03-27T19:09:55.328Z,23.64
2023-03-27T19:10:55.461Z,23.63
2023-03-27T19:11:55.391Z,23.64
2023-03-27T19:12:55.452Z,23.63
2023-03-27T19:13:55.477Z,23.61
2023-03-27T19:14:55.591Z,23.59
2023-03-27T19:15:55.606Z,23.59
2023-03-27T19:16:55.730Z,23.59
2023-03-27T19:18:55.772Z,23.53
2023-03-27T19:19:55.816Z,23.52
2023-03-27T19:20:56.017Z,23.52
2023-03-27T19:21:55.960Z,23.52
2023-03-27T19:22:56.041Z,23.52
2023-03-27T19:23:56.084Z,23.52
2023-03-27T19:24:56.134Z,23.52
2023-03-27T19:25:56.190Z,23.52
2023-03-27T19:26:56.272Z,23.52
2023-03-27T19:27:56.352Z,23.52
2023-03-27T19:28:56.369Z,23.53
2023-03-27T19:29:56.431Z,23.53
2023-03-27T19:30:56.738Z,23.53
2023-03-27T19:31:56.493Z,23.51
2023-03-27T19:32:56.631Z,23.46
2023-03-27T19:33:56.640Z,23.41
2023-03-27T19:34:56.694Z,23.34
2023-03-27T19:35:56.725Z,23.31
2023-03-27T19:36:56.730Z,23.28
2023-03-27T19:37:56.795Z,23.26
2023-03-27T19:38:56.775Z,23.26
2023-03-27T19:39:56.808Z,23.24
2023-03-27T19:40:57.046Z,23.26
2023-03-27T19:41:56.852Z,23.28
2023-03-27T19:42:56.895Z,23.31
2023-03-27T19:43:58.977Z,23.32
2023-03-27T19:44:56.941Z,23.31
2023-03-27T19:49:56.918Z,23.35
2023-03-27T19:50:57.008Z,23.36
2023-03-27T19:53:56.895Z,23.39
2023-03-27T19:54:56.855Z,23.40
2023-03-27T19:55:56.877Z,23.40
2023-03-27T19:57:56.853Z,23.39
2023-03-27T19:58:56.851Z,23.39
2023-03-27T20:00:56.915Z,23.38
2023-03-27T20:01:56.858Z,23.38
2023-03-27T20:08:56.808Z,23.35
2023-03-27T20:09:56.763Z,23.36
2023-03-27T20:11:56.733Z,23.38
2023-03-27T20:12:56.739Z,23.39
2023-03-27T20:15:56.837Z,23.43
2023-03-27T20:16:56.714Z,23.44
2023-03-27T20:17:56.765Z,23.45
2023-03-27T20:18:56.768Z,23.45
2023-03-27T20:19:56.834Z,23.46
2023-03-27T20:20:57.080Z,23.46
2023-03-27T20:21:57.004Z,23.47
2023-03-27T20:22:58.083Z,23.48
2023-03-27T20:23:57.126Z,23.48
2023-03-27T20:24:57.147Z,23.48
2023-03-27T20:25:57.382Z,23.48
2023-03-27T20:26:57.294Z,23.48
2023-03-27T20:27:57.304Z,23.49
2023-03-27T20:28:57.340Z,23.48
2023-03-27T20:29:57.444Z,23.44
2023-03-27T20:30:57.501Z,23.42
2023-03-27T20:31:57.561Z,23.43
2023-03-27T20:32:57.616Z,23.42
2023-03-27T20:33:57.692Z,23.44
2023-03-27T20:34:57.730Z,23.45
2023-03-27T20:35:58.135Z,23.44
2023-03-27T20:36:57.853Z,23.44
2023-03-27T20:37:58.140Z,23.43
2023-03-27T20:38:57.966Z,23.40
2023-03-27T20:39:57.985Z,23.37
2023-03-27T20:40:58.060Z,23.36
2023-03-27T20:41:58.105Z,23.34
2023-03-27T20:42:58.826Z,23.33
2023-03-27T20:47:58.268Z,23.25
2023-03-27T20:49:58.237Z,23.20
2023-03-27T20:50:58.282Z,23.18
2023-03-27T20:51:58.249Z,23.18
2023-03-27T20:52:58.259Z,23.16
2023-03-27T20:53:58.278Z,23.18
2023-03-27T20:59:58.249Z,23.22
2023-03-27T21:00:58.329Z,23.24
2023-03-27T21:01:58.288Z,23.26
2023-03-27T21:02:58.368Z,23.27
2023-03-27T21:03:58.658Z,23.29
2023-03-27T21:04:58.374Z,23.31
2023-03-27T21:05:58.538Z,23.32
2023-03-27T21:06:58.436Z,23.33
2023-03-27T21:07:58.508Z,23.35
2023-03-27T21:08:58.554Z,23.35
2023-03-27T21:09:58.645Z,23.36
2023-03-27T21:10:58.699Z,23.36
2023-03-27T21:11:58.780Z,23.37
2023-03-27T21:14:58.885Z,23.39
2023-03-27T21:15:59.114Z,23.39
2023-03-27T21:16:59.076Z,23.40
2023-03-27T21:17:59.145Z,23.38
2023-03-27T21:18:59.150Z,23.40
2023-03-27T21:19:59.253Z,23.40
2023-03-27T21:20:59.298Z,23.40
2023-03-27T21:21:59.364Z,23.40
2023-03-27T21:22:59.405Z,23.41
2023-03-27T21:23:59.465Z,23.42
2023-03-27T21:24:59.536Z,23.41
2023-03-27T21:25:59.661Z,23.41
2023-03-27T21:26:59.682Z,23.42
2023-03-27T21:27:59.730Z,23.42
2023-03-27T21:28:59.809Z,23.42
2023-03-27T21:29:59.881Z,23.42
2023-03-27T21:30:59.913Z,23.42
2023-03-27T21:32:00.012Z,23.42
2023-03-27T21:33:00.135Z,23.42
2023-03-27T21:34:00.140Z,23.42
2023-03-27T21:35:00.160Z,23.43
2023-03-27T21:36:00.515Z,23.43
2023-03-27T21:37:00.400Z,23.44
2023-03-27T21:38:00.350Z,23.44
2023-03-27T21:39:00.404Z,23.42
2023-03-27T21:40:00.465Z,23.43
2023-03-27T21:41:00.551Z,23.42
2023-03-27T21:42:00.596Z,23.42
2023-03-27T21:43:00.674Z,23.43
2023-03-27T21:44:00.711Z,23.43
2023-03-27T21:45:00.810Z,23.42
2023-03-27T21:46:01.099Z,23.43
2023-03-27T21:47:00.910Z,23.44
2023-03-27T21:48:01.012Z,23.44
2023-03-27T21:49:01.032Z,23.44
2023-03-27T21:50:01.114Z,23.44
2023-03-27T21:51:01.174Z,23.44
2023-03-27T21:52:01.200Z,23.44
2023-03-27T21:53:01.264Z,23.44
2023-03-27T21:54:01.310Z,23.44
2023-03-27T21:55:03.651Z,23.44
2023-03-27T21:56:01.734Z,23.44
2023-03-27T21:57:01.532Z,23.44
2023-03-27T21:58:01.554Z,23.44
2023-03-27T21:59:01.602Z,23.43
2023-03-27T22:00:01.729Z,23.42
2023-03-27T22:01:01.773Z,23.42
2023-03-27T22:02:01.838Z,23.42
2023-03-27T22:03:01.903Z,23.43